Weather at Good Samaritan Hospital Heliport [CLOSED]

Public forecast

Using degrees Fahrenheit for public forecast. Weather courtesy of forecast.io.

Closest aviation weather report (METAR) to Good Samaritan Hospital Heliport

Closest report is Phoenix Sky Harbor International Airport, 3.2 nm (6.0 km) ESE.

2024/07/24 04:51 (retrieved 15 minutes ago)

KPHX 240451Z 34007KT 10SM BKN250 41/13 A2983 RMK AO2 SLP076 T04110133

Closest aviation forecast (TAF) to Good Samaritan Hospital Heliport

Forecast is more than 6 hours old.

Closest forecast is Aeropuerto Internacional Gral. Rodolfo S├ínchez Taboada, 167.8 nm (310.8 km) WSW.

2024/07/23 18:31 (retrieved 11 hours ago)

TAF MMML 231724Z 2318/2418 17010KT P6SM SKC BECMG 2320/2321 17015KT FM240300 30005KT P6SM SKC BECMG 2417/2418 20010KT